Time;durP1;ratioP1;P1;durP2;ratioP2;P2;SDS_P1;SDS_P2;PMS_P1;PMS_P2;Temp;Humidity;BMP_temperature;BMP_pressure;BME280_temperature;BME280_humidity;BME280_pressure;Samples;Min_cycle;Max_cycle;Signal;HPM_P1;HPM_P2
2023/06/29 00:00:41;;;;;;;24.98;18.38;;;;;;;;;;5057004;28;20033;-84
2023/06/29 00:03:06;;;;;;;23.92;17.55;;;;;;;;;;5074911;28;20036;-83
2023/06/29 00:05:32;;;;;;;26.65;18.30;;;;;;;;;;5074729;28;20399;-83
2023/06/29 00:07:58;;;;;;;29.67;17.85;;;;;;;;;;5057419;28;20032;-83
2023/06/29 00:10:25;;;;;;;25.33;18.27;;;;;;;;;;5057501;28;20107;-82
2023/06/29 00:12:50;;;;;;;26.50;17.40;;;;;;;;;;5024522;28;20028;-83
2023/06/29 00:15:16;;;;;;;23.38;17.75;;;;;;;;;;5040363;28;20035;-83
2023/06/29 00:17:47;;;;;;;23.67;18.00;;;;;;;;;;5040359;28;20375;-84
2023/06/29 00:20:12;;;;;;;26.80;18.48;;;;;;;;;;5041706;28;20126;-83
2023/06/29 00:22:39;;;;;;;26.33;17.83;;;;;;;;;;5040064;28;20043;-82
2023/06/29 00:25:08;;;;;;;29.00;18.10;;;;;;;;;;5040609;28;20024;-83
2023/06/29 00:27:34;;;;;;;25.48;18.33;;;;;;;;;;5057415;28;20105;-83
2023/06/29 00:29:59;;;;;;;27.00;18.63;;;;;;;;;;5074613;28;20344;-83
2023/06/29 00:32:25;;;;;;;24.95;17.48;;;;;;;;;;5074876;28;20032;-83
2023/06/29 00:34:50;;;;;;;23.10;16.98;;;;;;;;;;5074871;28;20123;-83
2023/06/29 00:37:16;;;;;;;23.88;17.95;;;;;;;;;;5074666;28;20086;-83
2023/06/29 00:39:41;;;;;;;26.60;18.13;;;;;;;;;;5056452;28;20032;-83
2023/06/29 00:42:08;;;;;;;26.00;17.52;;;;;;;;;;5055689;28;20045;-83
2023/06/29 00:44:33;;;;;;;24.40;17.30;;;;;;;;;;5074711;28;20036;-84
2023/06/29 00:46:59;;;;;;;23.08;17.02;;;;;;;;;;5039819;28;20025;-83
2023/06/29 00:49:24;;;;;;;24.70;17.27;;;;;;;;;;5039777;28;20025;-83
2023/06/29 00:51:50;;;;;;;23.80;16.65;;;;;;;;;;5023408;28;20036;-84
2023/06/29 00:54:17;;;;;;;22.98;17.50;;;;;;;;;;5039619;28;20037;-84
2023/06/29 00:56:42;;;;;;;28.70;16.83;;;;;;;;;;5039733;28;20077;-83
2023/06/29 00:59:08;;;;;;;21.80;16.85;;;;;;;;;;5023516;28;20432;-84
2023/06/29 01:01:33;;;;;;;22.75;16.98;;;;;;;;;;5038853;28;20109;-84
2023/06/29 01:03:59;;;;;;;25.75;17.33;;;;;;;;;;5023126;28;20469;-83
2023/06/29 01:06:31;;;;;;;26.00;17.50;;;;;;;;;;5073966;28;20028;-83
2023/06/29 01:09:05;;;;;;;24.77;16.85;;;;;;;;;;5040076;28;20036;-83
2023/06/29 01:11:34;;;;;;;23.52;16.23;;;;;;;;;;5040097;28;20036;-84
2023/06/29 01:14:01;;;;;;;20.58;16.52;;;;;;;;;;5039464;28;20031;-83
2023/06/29 01:16:26;;;;;;;25.75;17.20;;;;;;;;;;5055569;28;20024;-83
2023/06/29 01:18:52;;;;;;;36.53;17.70;;;;;;;;;;5039265;28;20036;-83
2023/06/29 01:21:20;;;;;;;25.05;17.42;;;;;;;;;;5023050;28;20024;-83
2023/06/29 01:23:46;;;;;;;24.85;17.20;;;;;;;;;;5039269;28;20367;-83
2023/06/29 01:26:12;;;;;;;24.80;17.80;;;;;;;;;;5022668;28;20040;-83
2023/06/29 01:28:38;;;;;;;23.92;17.10;;;;;;;;;;5023074;28;20035;-83
2023/06/29 01:31:05;;;;;;;25.27;17.13;;;;;;;;;;5022969;28;20035;-83
2023/06/29 01:33:31;;;;;;;27.80;17.83;;;;;;;;;;5056122;28;20386;-83
2023/06/29 01:36:02;;;;;;;25.55;17.25;;;;;;;;;;5039774;28;20034;-83
2023/06/29 01:38:32;;;;;;;29.13;17.80;;;;;;;;;;5039675;28;20045;-82
2023/06/29 01:40:57;;;;;;;25.75;17.35;;;;;;;;;;5022916;28;20119;-83
2023/06/29 01:43:24;;;;;;;23.27;17.02;;;;;;;;;;5039293;28;20419;-82
2023/06/29 01:45:50;;;;;;;28.27;17.67;;;;;;;;;;5056217;28;20115;-82
2023/06/29 01:48:15;;;;;;;27.77;17.35;;;;;;;;;;5039156;28;20120;-82
2023/06/29 01:50:41;;;;;;;29.40;17.23;;;;;;;;;;5022772;28;20135;-82
2023/06/29 01:53:06;;;;;;;26.95;17.30;;;;;;;;;;5038873;28;20040;-82
2023/06/29 01:55:32;;;;;;;23.23;16.83;;;;;;;;;;5039192;28;20127;-82
2023/06/29 01:57:58;;;;;;;25.17;16.65;;;;;;;;;;5055726;28;20060;-82
2023/06/29 02:00:23;;;;;;;25.35;16.10;;;;;;;;;;5055757;28;20079;-83
2023/06/29 02:02:49;;;;;;;23.02;17.05;;;;;;;;;;5055404;28;20059;-82
2023/06/29 02:05:15;;;;;;;24.70;16.42;;;;;;;;;;5055573;28;20032;-82
2023/06/29 02:07:40;;;;;;;22.02;16.52;;;;;;;;;;5055416;28;20032;-83
2023/06/29 02:10:06;;;;;;;25.38;16.85;;;;;;;;;;5055511;28;20033;-83
2023/06/29 02:12:32;;;;;;;29.05;17.08;;;;;;;;;;5055638;28;20039;-83
2023/06/29 02:14:58;;;;;;;22.60;15.35;;;;;;;;;;5022949;28;20020;-83
2023/06/29 02:17:23;;;;;;;25.52;16.05;;;;;;;;;;5055751;28;20025;-82
2023/06/29 02:19:48;;;;;;;23.48;16.02;;;;;;;;;;5055677;28;20024;-82
2023/06/29 02:22:14;;;;;;;19.08;14.30;;;;;;;;;;5073010;28;20028;-83
2023/06/29 02:24:40;;;;;;;22.63;15.50;;;;;;;;;;5038898;28;20032;-82
2023/06/29 02:27:05;;;;;;;21.77;15.15;;;;;;;;;;5038677;28;20356;-83
2023/06/29 02:29:31;;;;;;;23.33;15.38;;;;;;;;;;5040951;28;20106;-83
2023/06/29 02:31:56;;;;;;;22.77;15.48;;;;;;;;;;5042668;28;20367;-83
2023/06/29 02:34:21;;;;;;;25.02;15.80;;;;;;;;;;5076863;28;20505;-83
2023/06/29 02:36:47;;;;;;;32.53;15.98;;;;;;;;;;5042008;28;20025;-83
2023/06/29 02:39:12;;;;;;;24.83;15.35;;;;;;;;;;5025595;28;20028;-83
2023/06/29 02:41:38;;;;;;;21.42;14.93;;;;;;;;;;5025973;28;20127;-83
2023/06/29 02:44:03;;;;;;;21.38;15.52;;;;;;;;;;5026249;28;20028;-83
2023/06/29 02:46:29;;;;;;;22.10;14.82;;;;;;;;;;5042471;28;20021;-84
2023/06/29 02:48:54;;;;;;;24.20;15.27;;;;;;;;;;5042274;28;20119;-84
2023/06/29 02:51:20;;;;;;;29.38;14.40;;;;;;;;;;5058499;28;20023;-83
2023/06/29 02:53:45;;;;;;;18.90;13.88;;;;;;;;;;5038340;28;20044;-83
2023/06/29 02:56:11;;;;;;;20.58;13.82;;;;;;;;;;5038581;28;20043;-83
2023/06/29 02:58:36;;;;;;;19.05;14.02;;;;;;;;;;5055331;28;20017;-83
2023/06/29 03:01:01;;;;;;;20.35;13.10;;;;;;;;;;5056272;28;20025;-83
2023/06/29 03:03:27;;;;;;;18.60;13.77;;;;;;;;;;5055191;28;20140;-83
2023/06/29 03:05:52;;;;;;;18.88;13.15;;;;;;;;;;5056062;28;20043;-83
2023/06/29 03:08:18;;;;;;;19.33;12.65;;;;;;;;;;5038338;28;20028;-83
2023/06/29 03:10:43;;;;;;;19.80;12.38;;;;;;;;;;5038334;28;20444;-83
2023/06/29 03:13:09;;;;;;;20.17;12.80;;;;;;;;;;5054881;28;20052;-82
2023/06/29 03:15:34;;;;;;;20.45;12.70;;;;;;;;;;5055004;28;20133;-82
2023/06/29 03:17:59;;;;;;;19.65;13.07;;;;;;;;;;5021783;28;20059;-83
2023/06/29 03:20:25;;;;;;;19.67;12.95;;;;;;;;;;5055658;28;20083;-83
2023/06/29 03:22:50;;;;;;;16.73;12.32;;;;;;;;;;5021893;28;20027;-82
2023/06/29 03:25:16;;;;;;;19.05;12.55;;;;;;;;;;5054635;28;20029;-83
2023/06/29 03:27:42;;;;;;;14.75;11.85;;;;;;;;;;5055725;28;20119;-83
2023/06/29 03:30:07;;;;;;;19.00;11.70;;;;;;;;;;5054494;28;20029;-82
2023/06/29 03:32:33;;;;;;;17.23;11.73;;;;;;;;;;5055022;28;20021;-83
2023/06/29 03:34:58;;;;;;;17.88;11.40;;;;;;;;;;5037547;28;20032;-83
2023/06/29 03:37:24;;;;;;;16.75;10.95;;;;;;;;;;5022365;28;20083;-83
2023/06/29 03:39:49;;;;;;;20.75;12.23;;;;;;;;;;5038979;28;20100;-82
2023/06/29 03:42:14;;;;;;;15.05;11.35;;;;;;;;;;5057741;28;20029;-83
2023/06/29 03:44:40;;;;;;;20.05;11.23;;;;;;;;;;5038764;28;20174;-84
2023/06/29 03:47:06;;;;;;;16.65;10.75;;;;;;;;;;5055449;28;20036;-83
2023/06/29 03:49:32;;;;;;;17.15;11.40;;;;;;;;;;5055013;28;20485;-83
2023/06/29 03:51:58;;;;;;;17.08;10.63;;;;;;;;;;5059039;28;20036;-84
2023/06/29 03:54:23;;;;;;;17.17;12.00;;;;;;;;;;5040842;28;20028;-83
2023/06/29 03:56:49;;;;;;;20.80;11.05;;;;;;;;;;5057315;28;20042;-83
2023/06/29 03:59:14;;;;;;;19.30;10.57;;;;;;;;;;5057407;28;20028;-83
2023/06/29 04:01:39;;;;;;;15.05;10.30;;;;;;;;;;5075224;28;20027;-83
2023/06/29 04:04:05;;;;;;;17.90;11.30;;;;;;;;;;5074810;28;20024;-83
2023/06/29 04:06:30;;;;;;;16.70;10.55;;;;;;;;;;5040422;28;20031;-83
2023/06/29 04:08:56;;;;;;;19.20;11.40;;;;;;;;;;5040647;28;20086;-83
2023/06/29 04:11:21;;;;;;;17.60;10.68;;;;;;;;;;5023972;28;20413;-83
2023/06/29 04:13:46;;;;;;;18.60;11.27;;;;;;;;;;5024097;28;20033;-84
2023/06/29 04:16:12;;;;;;;17.27;10.98;;;;;;;;;;5074769;28;20025;-83
2023/06/29 04:18:38;;;;;;;15.05;11.00;;;;;;;;;;5023568;28;20215;-84
2023/06/29 04:21:04;;;;;;;16.23;10.63;;;;;;;;;;5040577;28;20514;-84
2023/06/29 04:23:29;;;;;;;15.20;11.10;;;;;;;;;;5023634;28;20028;-84
2023/06/29 04:25:54;;;;;;;18.67;11.98;;;;;;;;;;5040434;28;20029;-83
2023/06/29 04:28:20;;;;;;;17.63;11.05;;;;;;;;;;5040277;28;20024;-84
2023/06/29 04:30:45;;;;;;;19.77;10.98;;;;;;;;;;5040118;28;20024;-82
2023/06/29 04:33:11;;;;;;;17.73;10.55;;;;;;;;;;5074350;28;20040;-82
2023/06/29 04:35:40;;;;;;;14.32;10.30;;;;;;;;;;5075282;28;20029;-89
2023/06/29 04:38:06;;;;;;;15.10;10.07;;;;;;;;;;5056990;28;20031;-89
2023/06/29 04:40:31;;;;;;;16.02;9.40;;;;;;;;;;5056819;28;20025;-88
2023/06/29 04:42:57;;;;;;;14.00;9.23;;;;;;;;;;5040457;28;20448;-88
2023/06/29 04:45:24;;;;;;;14.82;9.35;;;;;;;;;;5056824;28;20039;-87
2023/06/29 04:47:49;;;;;;;14.13;9.05;;;;;;;;;;5074374;28;20403;-88
2023/06/29 04:50:15;;;;;;;16.08;8.95;;;;;;;;;;5074818;28;20090;-89
2023/06/29 04:52:41;;;;;;;14.40;8.38;;;;;;;;;;5056297;28;20040;-88
2023/06/29 04:55:09;;;;;;;11.05;7.88;;;;;;;;;;5040745;28;20031;-89
2023/06/29 04:57:36;;;;;;;12.10;8.48;;;;;;;;;;5075251;28;20024;-86
2023/06/29 05:00:07;;;;;;;10.52;7.80;;;;;;;;;;5050843;28;20033;-87
2023/06/29 05:02:32;;;;;;;10.77;7.60;;;;;;;;;;5059692;28;20029;-87
2023/06/29 05:04:58;;;;;;;14.80;8.13;;;;;;;;;;5079579;28;20134;-88
2023/06/29 05:07:23;;;;;;;11.10;7.88;;;;;;;;;;5073149;28;20127;-88
2023/06/29 05:09:49;;;;;;;12.27;8.00;;;;;;;;;;5070915;28;20032;-88
2023/06/29 05:12:14;;;;;;;10.90;7.32;;;;;;;;;;5045747;28;20044;-86
2023/06/29 05:14:40;;;;;;;11.55;7.18;;;;;;;;;;5080142;28;20068;-89
2023/06/29 05:17:05;;;;;;;10.85;7.03;;;;;;;;;;5083577;28;20033;-86
2023/06/29 05:19:32;;;;;;;12.40;7.22;;;;;;;;;;5021282;28;20028;-89
2023/06/29 05:21:57;;;;;;;10.45;7.43;;;;;;;;;;5071039;28;20036;-88
2023/06/29 05:24:23;;;;;;;13.55;7.00;;;;;;;;;;5035334;28;20033;-87
2023/06/29 05:26:49;;;;;;;12.93;6.57;;;;;;;;;;5061578;28;20069;-88
2023/06/29 05:29:15;;;;;;;10.95;6.75;;;;;;;;;;5037540;28;20037;-89
2023/06/29 05:31:40;;;;;;;13.38;6.40;;;;;;;;;;5056778;28;20027;-90
2023/06/29 05:34:05;;;;;;;11.07;5.88;;;;;;;;;;5058899;28;20029;-88
2023/06/29 05:36:31;;;;;;;7.78;5.88;;;;;;;;;;5065138;28;20025;-90
2023/06/29 05:38:56;;;;;;;33.10;6.57;;;;;;;;;;5083971;28;20016;-91
2023/06/29 05:41:26;;;;;;;12.68;5.80;;;;;;;;;;5086457;28;20052;-90
2023/06/29 05:43:52;;;;;;;7.60;5.68;;;;;;;;;;5064177;28;20075;-88
2023/06/29 05:46:18;;;;;;;15.10;5.78;;;;;;;;;;5079445;28;20595;-87
2023/06/29 05:48:43;;;;;;;6.20;5.40;;;;;;;;;;5084841;28;20008;-89
2023/06/29 05:51:08;;;;;;;13.98;5.22;;;;;;;;;;5076177;28;20024;-87
2023/06/29 05:53:35;;;;;;;8.15;5.30;;;;;;;;;;5044796;28;20044;-89
2023/06/29 05:56:00;;;;;;;6.18;4.65;;;;;;;;;;5038971;28;20029;-90
2023/06/29 05:58:26;;;;;;;11.35;4.78;;;;;;;;;;5039537;28;20515;-86
2023/06/29 06:00:52;;;;;;;6.63;4.68;;;;;;;;;;5036340;28;20136;-89
2023/06/29 06:03:17;;;;;;;7.78;4.90;;;;;;;;;;5070224;28;20035;-86
2023/06/29 06:05:43;;;;;;;7.13;4.53;;;;;;;;;;5058090;28;20426;-88
2023/06/29 06:08:08;;;;;;;5.50;4.40;;;;;;;;;;5045249;28;20035;-88
2023/06/29 06:10:33;;;;;;;4.57;4.18;;;;;;;;;;5059804;28;20028;-89
2023/06/29 06:12:59;;;;;;;7.97;4.13;;;;;;;;;;5060239;28;20036;-81
2023/06/29 06:15:25;;;;;;;6.88;3.75;;;;;;;;;;5041707;28;20432;-80
2023/06/29 06:17:53;;;;;;;4.00;3.70;;;;;;;;;;5043696;28;20312;-83
2023/06/29 06:20:19;;;;;;;6.32;3.67;;;;;;;;;;5039682;28;20056;-81
2023/06/29 06:22:44;;;;;;;5.15;3.60;;;;;;;;;;5057996;28;20063;-81
2023/06/29 06:25:10;;;;;;;7.03;3.55;;;;;;;;;;5015196;28;20120;-84
2023/06/29 06:27:35;;;;;;;3.45;3.10;;;;;;;;;;5055671;28;20311;-80
2023/06/29 06:30:05;;;;;;;8.02;3.65;;;;;;;;;;5060446;28;20090;-78
2023/06/29 06:32:31;;;;;;;5.03;3.35;;;;;;;;;;5038438;28;20728;-79
2023/06/29 06:34:57;;;;;;;7.97;3.40;;;;;;;;;;5060882;28;20040;-80
2023/06/29 06:37:22;;;;;;;4.88;3.15;;;;;;;;;;5056920;28;20451;-79
2023/06/29 06:39:48;;;;;;;7.10;3.30;;;;;;;;;;5071962;28;20482;-79
2023/06/29 06:42:13;;;;;;;7.22;3.30;;;;;;;;;;5072161;28;20029;-80
2023/06/29 06:44:49;;;;;;;4.13;2.70;;;;;;;;;;5072842;28;20043;-78
2023/06/29 06:47:14;;;;;;;6.30;3.10;;;;;;;;;;5040771;28;20086;-80
2023/06/29 06:49:40;;;;;;;3.72;2.67;;;;;;;;;;5038144;28;20433;-80
2023/06/29 06:52:06;;;;;;;5.60;2.85;;;;;;;;;;5064613;28;20452;-78
2023/06/29 06:54:31;;;;;;;7.97;2.97;;;;;;;;;;5055554;28;20152;-78
2023/06/29 06:56:57;;;;;;;5.45;2.85;;;;;;;;;;5037701;28;20085;-79
2023/06/29 06:59:22;;;;;;;2.92;2.67;;;;;;;;;;5037282;28;20056;-81
2023/06/29 07:01:47;;;;;;;5.28;2.83;;;;;;;;;;5029581;28;20120;-81
2023/06/29 07:04:13;;;;;;;3.45;2.90;;;;;;;;;;5069084;28;20027;-81
2023/06/29 07:06:38;;;;;;;6.47;2.78;;;;;;;;;;5075777;28;20115;-81
2023/06/29 07:09:04;;;;;;;7.25;3.20;;;;;;;;;;5075308;28;20406;-80
2023/06/29 07:11:30;;;;;;;3.47;2.60;;;;;;;;;;5042093;28;20447;-80
2023/06/29 07:13:55;;;;;;;4.00;2.90;;;;;;;;;;5077302;28;20025;-81
2023/06/29 07:16:21;;;;;;;4.88;2.67;;;;;;;;;;5041834;28;20024;-81
2023/06/29 07:19:11;;;;;;;3.22;2.70;;;;;;;;;;5057923;28;20048;-82
2023/06/29 07:21:37;;;;;;;3.00;2.58;;;;;;;;;;5057896;28;20029;-82
2023/06/29 07:24:02;;;;;;;4.45;3.15;;;;;;;;;;5074955;28;20048;-82
2023/06/29 07:26:28;;;;;;;3.58;2.80;;;;;;;;;;5041482;28;20032;-83
2023/06/29 07:28:53;;;;;;;3.60;3.30;;;;;;;;;;5024254;28;20047;-81
2023/06/29 07:31:26;;;;;;;3.35;2.80;;;;;;;;;;5057941;28;20063;-79
2023/06/29 07:33:53;;;;;;;4.72;2.90;;;;;;;;;;5041672;28;20040;-79
2023/06/29 07:36:19;;;;;;;4.22;3.03;;;;;;;;;;5056765;28;20119;-81
2023/06/29 07:38:44;;;;;;;4.65;2.72;;;;;;;;;;5039516;28;20021;-81
2023/06/29 07:41:10;;;;;;;4.22;2.75;;;;;;;;;;5054607;28;20424;-81
2023/06/29 07:43:35;;;;;;;6.15;3.15;;;;;;;;;;5035594;28;20036;-79
2023/06/29 07:46:01;;;;;;;2.67;2.47;;;;;;;;;;5050612;28;20029;-80
2023/06/29 07:48:27;;;;;;;3.22;2.60;;;;;;;;;;5051945;28;20128;-80
2023/06/29 07:50:53;;;;;;;3.40;2.50;;;;;;;;;;5036017;28;20056;-78
2023/06/29 07:53:19;;;;;;;4.82;2.50;;;;;;;;;;5066460;28;20467;-78
2023/06/29 07:55:44;;;;;;;2.75;2.40;;;;;;;;;;5051573;28;20021;-79
2023/06/29 07:58:10;;;;;;;7.13;2.58;;;;;;;;;;5070144;28;20367;-81
2023/06/29 08:00:35;;;;;;;5.25;2.55;;;;;;;;;;5062813;28;20024;-79
2023/06/29 08:03:02;;;;;;;2.33;2.20;;;;;;;;;;5071860;28;20363;-81
2023/06/29 08:05:28;;;;;;;3.65;2.42;;;;;;;;;;5072992;28;20021;-80
2023/06/29 08:07:53;;;;;;;2.63;2.10;;;;;;;;;;5054711;28;20082;-80
2023/06/29 08:10:19;;;;;;;2.40;2.20;;;;;;;;;;5073857;28;20024;-79
2023/06/29 08:12:44;;;;;;;4.70;2.20;;;;;;;;;;5073941;28;20021;-79
2023/06/29 08:15:10;;;;;;;3.30;2.30;;;;;;;;;;5074345;28;20033;-80
2023/06/29 08:17:35;;;;;;;5.75;2.30;;;;;;;;;;5073479;28;20107;-79
2023/06/29 08:20:01;;;;;;;3.53;2.30;;;;;;;;;;5072612;28;20028;-80
2023/06/29 08:22:26;;;;;;;3.78;2.72;;;;;;;;;;5073334;28;20470;-80
2023/06/29 08:24:52;;;;;;;4.60;2.70;;;;;;;;;;5073426;28;20033;-79
2023/06/29 08:27:19;;;;;;;7.05;2.40;;;;;;;;;;5073496;28;20360;-80
2023/06/29 08:29:44;;;;;;;5.35;2.75;;;;;;;;;;5071780;28;20047;-79
2023/06/29 08:32:10;;;;;;;6.45;2.50;;;;;;;;;;5072303;28;20024;-79
2023/06/29 08:34:35;;;;;;;3.13;2.20;;;;;;;;;;5074450;28;20046;-80
2023/06/29 08:37:01;;;;;;;4.68;1.98;;;;;;;;;;5074565;28;20157;-80
2023/06/29 08:39:26;;;;;;;4.40;2.30;;;;;;;;;;5074312;28;20024;-80
2023/06/29 08:41:53;;;;;;;4.40;2.15;;;;;;;;;;5074509;28;20462;-82
2023/06/29 08:44:20;;;;;;;3.97;2.60;;;;;;;;;;5074817;28;20036;-81
2023/06/29 08:46:45;;;;;;;3.47;2.50;;;;;;;;;;5056459;28;20477;-81
2023/06/29 08:49:11;;;;;;;3.17;2.70;;;;;;;;;;5055603;28;20073;-80
2023/06/29 08:51:38;;;;;;;3.88;2.70;;;;;;;;;;5038820;28;20016;-80
2023/06/29 08:54:04;;;;;;;3.55;2.70;;;;;;;;;;5056743;28;20167;-81
2023/06/29 08:56:30;;;;;;;4.43;2.28;;;;;;;;;;5055955;28;20123;-81
2023/06/29 08:58:56;;;;;;;2.58;2.35;;;;;;;;;;5039419;28;20020;-78
2023/06/29 09:01:21;;;;;;;3.35;2.00;;;;;;;;;;5056143;28;20032;-80
2023/06/29 09:03:47;;;;;;;2.78;1.90;;;;;;;;;;5038179;28;20028;-80
2023/06/29 09:06:15;;;;;;;1.80;1.70;;;;;;;;;;5058462;28;20044;-79
2023/06/29 09:08:41;;;;;;;2.65;2.25;;;;;;;;;;5077732;28;20135;-79
2023/06/29 09:11:06;;;;;;;3.80;2.10;;;;;;;;;;5058974;28;20086;-79
2023/06/29 09:13:33;;;;;;;2.85;1.90;;;;;;;;;;5057664;28;20032;-78
2023/06/29 09:16:00;;;;;;;2.33;1.80;;;;;;;;;;5076346;28;20028;-79
2023/06/29 09:18:26;;;;;;;9.18;2.20;;;;;;;;;;5039667;28;20071;-79
2023/06/29 09:20:57;;;;;;;4.97;2.30;;;;;;;;;;5074092;28;20407;-80
2023/06/29 09:23:25;;;;;;;3.80;2.00;;;;;;;;;;5040065;28;20024;-80
2023/06/29 09:25:52;;;;;;;9.90;2.10;;;;;;;;;;5056918;28;20033;-81
2023/06/29 09:28:18;;;;;;;3.70;2.03;;;;;;;;;;5039909;28;20118;-78
2023/06/29 09:30:43;;;;;;;5.22;2.15;;;;;;;;;;5055617;28;20027;-79
2023/06/29 09:33:12;;;;;;;3.95;2.28;;;;;;;;;;5056385;28;20028;-80
2023/06/29 09:35:41;;;;;;;4.97;1.95;;;;;;;;;;5056440;28;20039;-80
2023/06/29 09:38:06;;;;;;;4.63;2.13;;;;;;;;;;5042085;28;20115;-80
2023/06/29 09:40:45;;;;;;;4.28;2.00;;;;;;;;;;5059618;28;20438;-78
2023/06/29 09:43:17;;;;;;;8.68;3.90;;;;;;;;;;5061643;28;20034;-80
2023/06/29 09:45:43;;;;;;;3.25;1.88;;;;;;;;;;5061054;28;20402;-80
2023/06/29 09:48:11;;;;;;;4.40;2.13;;;;;;;;;;5059815;28;20047;-79
2023/06/29 09:50:37;;;;;;;3.40;1.98;;;;;;;;;;5077757;28;20058;-80
2023/06/29 09:53:07;;;;;;;3.67;2.63;;;;;;;;;;5077121;28;20036;-80
2023/06/29 09:55:32;;;;;;;2.70;2.08;;;;;;;;;;5026524;28;20316;-80
2023/06/29 09:57:58;;;;;;;3.00;2.05;;;;;;;;;;5026082;28;20028;-80
2023/06/29 10:00:23;;;;;;;12.05;4.35;;;;;;;;;;5042939;28;20482;-79
2023/06/29 10:02:49;;;;;;;2.72;1.90;;;;;;;;;;5059372;28;20443;-79
2023/06/29 10:05:14;;;;;;;6.90;2.10;;;;;;;;;;5077051;28;20127;-79
2023/06/29 10:07:40;;;;;;;2.40;1.83;;;;;;;;;;5059426;28;20073;-79
2023/06/29 10:10:06;;;;;;;2.92;2.00;;;;;;;;;;5042206;28;20028;-79
2023/06/29 10:12:32;;;;;;;7.22;2.10;;;;;;;;;;5059016;28;20024;-79
2023/06/29 10:14:59;;;;;;;3.65;2.03;;;;;;;;;;5077206;28;20036;-79
2023/06/29 10:17:40;;;;;;;4.38;2.28;;;;;;;;;;5042517;28;20029;-78
2023/06/29 10:20:06;;;;;;;1.60;1.50;;;;;;;;;;5058897;28;20115;-79
2023/06/29 10:22:32;;;;;;;3.72;1.92;;;;;;;;;;5042998;28;20167;-81
2023/06/29 10:25:00;;;;;;;2.80;1.83;;;;;;;;;;5042641;28;20081;-79
2023/06/29 10:27:28;;;;;;;5.05;2.20;;;;;;;;;;5026302;28;20447;-80
2023/06/29 10:29:53;;;;;;;3.13;1.85;;;;;;;;;;5042930;28;20035;-79
2023/06/29 10:32:29;;;;;;;4.85;2.28;;;;;;;;;;5059220;28;20123;-79
2023/06/29 10:35:13;;;;;;;2.95;2.10;;;;;;;;;;5059845;28;20032;-79
2023/06/29 10:37:47;;;;;;;3.45;2.13;;;;;;;;;;5059576;28;20043;-80
2023/06/29 10:40:16;;;;;;;2.95;1.85;;;;;;;;;;5043870;28;20029;-80
2023/06/29 10:42:41;;;;;;;4.30;1.77;;;;;;;;;;5026364;28;20043;-80
2023/06/29 10:45:16;;;;;;;8.57;2.35;;;;;;;;;;5078217;28;20036;-80
2023/06/29 10:47:42;;;;;;;6.50;2.17;;;;;;;;;;5076721;28;20025;-78
2023/06/29 10:50:10;;;;;;;2.20;1.90;;;;;;;;;;5057090;28;20041;-77
2023/06/29 10:52:40;;;;;;;7.70;2.42;;;;;;;;;;5076369;28;20055;-78
2023/06/29 10:55:22;;;;;;;6.20;2.88;;;;;;;;;;5043166;28;20341;-79
2023/06/29 10:57:51;;;;;;;3.67;1.92;;;;;;;;;;5058531;28;20048;-80
2023/06/29 11:00:16;;;;;;;5.18;2.00;;;;;;;;;;5076511;28;20063;-80
2023/06/29 11:02:43;;;;;;;3.88;1.88;;;;;;;;;;5040464;28;20060;-80
2023/06/29 11:05:16;;;;;;;5.15;1.98;;;;;;;;;;5041035;28;20035;-80
2023/06/29 11:07:42;;;;;;;4.43;2.30;;;;;;;;;;5041751;28;20090;-80
2023/06/29 11:10:08;;;;;;;2.55;2.20;;;;;;;;;;5057356;28;20410;-79
2023/06/29 11:12:36;;;;;;;2.47;2.20;;;;;;;;;;5075426;28;20028;-79
2023/06/29 11:15:01;;;;;;;3.38;2.20;;;;;;;;;;5040441;28;20029;-79
2023/06/29 11:17:27;;;;;;;3.30;2.15;;;;;;;;;;5074599;28;20025;-79
2023/06/29 11:19:52;;;;;;;6.60;2.40;;;;;;;;;;5056695;28;20082;-80
2023/06/29 11:22:20;;;;;;;3.83;2.40;;;;;;;;;;5056749;28;20086;-80
2023/06/29 11:24:46;;;;;;;6.10;2.10;;;;;;;;;;5040926;28;20024;-80
2023/06/29 11:27:15;;;;;;;7.55;2.20;;;;;;;;;;5058090;28;20031;-78
2023/06/29 11:29:40;;;;;;;4.80;2.27;;;;;;;;;;5041191;28;20044;-77
2023/06/29 11:32:12;;;;;;;5.50;2.30;;;;;;;;;;5024959;28;20066;-79
2023/06/29 11:34:38;;;;;;;5.03;2.33;;;;;;;;;;5075602;28;20083;-79
2023/06/29 11:37:04;;;;;;;3.40;2.30;;;;;;;;;;5075471;28;20410;-78
2023/06/29 11:39:30;;;;;;;4.63;2.20;;;;;;;;;;5057868;28;20025;-78
2023/06/29 11:41:55;;;;;;;2.67;2.03;;;;;;;;;;5057734;28;20032;-78
2023/06/29 11:44:24;;;;;;;2.90;2.60;;;;;;;;;;5041587;28;20353;-79
2023/06/29 11:46:49;;;;;;;3.72;2.40;;;;;;;;;;5041271;28;20033;-80
2023/06/29 11:49:15;;;;;;;2.42;2.22;;;;;;;;;;5040512;28;20370;-80
2023/06/29 11:51:42;;;;;;;3.65;2.80;;;;;;;;;;5057204;28;20359;-79
2023/06/29 11:54:08;;;;;;;4.22;2.72;;;;;;;;;;5041461;28;20036;-79
2023/06/29 11:56:41;;;;;;;3.60;2.50;;;;;;;;;;5040889;28;20043;-80
2023/06/29 11:59:15;;;;;;;7.07;4.93;;;;;;;;;;5075957;28;20029;-79
2023/06/29 12:01:41;;;;;;;3.30;2.35;;;;;;;;;;5040711;28;20028;-78
2023/06/29 12:04:06;;;;;;;5.88;2.60;;;;;;;;;;5057665;28;20396;-78
2023/06/29 12:06:35;;;;;;;4.28;2.33;;;;;;;;;;5075312;28;20029;-78
2023/06/29 12:09:10;;;;;;;3.55;2.67;;;;;;;;;;5057988;28;20446;-78
2023/06/29 12:11:36;;;;;;;5.03;2.70;;;;;;;;;;5056024;28;20039;-77
2023/06/29 12:14:01;;;;;;;5.38;2.50;;;;;;;;;;5075229;28;20025;-82
2023/06/29 12:16:26;;;;;;;4.25;2.72;;;;;;;;;;5076581;28;20035;-80
2023/06/29 12:18:52;;;;;;;4.45;2.80;;;;;;;;;;5041871;28;20031;-80
2023/06/29 12:21:21;;;;;;;5.35;3.15;;;;;;;;;;5057872;28;20462;-78
2023/06/29 12:23:46;;;;;;;2.70;2.50;;;;;;;;;;5056997;28;20052;-81
2023/06/29 12:26:12;;;;;;;3.28;2.60;;;;;;;;;;5073494;28;20055;-79
2023/06/29 12:28:38;;;;;;;2.95;2.50;;;;;;;;;;5055444;28;20104;-80
2023/06/29 12:31:03;;;;;;;4.85;2.60;;;;;;;;;;5073252;28;20052;-79
2023/06/29 12:33:29;;;;;;;2.88;2.60;;;;;;;;;;5039103;28;20494;-79
2023/06/29 12:35:56;;;;;;;5.63;2.92;;;;;;;;;;5038258;28;20142;-79
2023/06/29 12:38:22;;;;;;;2.63;2.30;;;;;;;;;;5072791;28;20562;-79
2023/06/29 12:40:47;;;;;;;2.90;2.60;;;;;;;;;;5054772;28;20119;-79
2023/06/29 12:43:13;;;;;;;3.33;2.30;;;;;;;;;;5073539;28;20089;-79
2023/06/29 12:45:38;;;;;;;2.80;2.55;;;;;;;;;;5073838;28;20024;-79
2023/06/29 12:48:04;;;;;;;2.63;2.35;;;;;;;;;;5074116;28;20032;-79
2023/06/29 12:50:29;;;;;;;3.78;2.30;;;;;;;;;;5075500;28;20020;-80
2023/06/29 12:52:55;;;;;;;2.92;2.63;;;;;;;;;;5074354;28;20410;-80
2023/06/29 12:55:20;;;;;;;4.22;2.78;;;;;;;;;;5056479;28;20072;-80
2023/06/29 12:57:45;;;;;;;6.05;3.08;;;;;;;;;;5039724;28;20031;-79
2023/06/29 13:00:12;;;;;;;4.55;2.85;;;;;;;;;;5073834;28;20041;-80
2023/06/29 13:02:37;;;;;;;5.32;2.80;;;;;;;;;;5039915;28;20086;-79
2023/06/29 13:05:03;;;;;;;4.18;2.30;;;;;;;;;;5074904;28;20032;-79
2023/06/29 13:07:29;;;;;;;3.00;2.70;;;;;;;;;;5039683;28;20067;-79
2023/06/29 13:09:56;;;;;;;2.40;2.20;;;;;;;;;;5056316;28;20028;-79
2023/06/29 13:12:22;;;;;;;2.80;2.60;;;;;;;;;;5056071;28;20086;-79
2023/06/29 13:14:49;;;;;;;2.55;2.35;;;;;;;;;;5056019;28;20036;-79
2023/06/29 13:17:14;;;;;;;2.80;2.60;;;;;;;;;;5055725;28;20024;-79
2023/06/29 13:19:42;;;;;;;3.70;2.55;;;;;;;;;;5055734;28;20023;-80
2023/06/29 13:22:07;;;;;;;2.80;2.60;;;;;;;;;;5056305;28;20044;-79
2023/06/29 13:24:36;;;;;;;2.92;2.42;;;;;;;;;;5056190;28;20060;-78
2023/06/29 13:27:03;;;;;;;3.90;2.55;;;;;;;;;;5040152;28;20478;-78
2023/06/29 13:29:34;;;;;;;2.95;2.42;;;;;;;;;;5073715;28;20424;-79
2023/06/29 13:31:59;;;;;;;2.50;2.30;;;;;;;;;;5055484;28;20444;-78
2023/06/29 13:34:28;;;;;;;4.95;2.50;;;;;;;;;;5038986;28;20036;-79
2023/06/29 13:36:54;;;;;;;2.67;2.40;;;;;;;;;;5056131;28;20367;-79
2023/06/29 13:39:19;;;;;;;3.88;2.20;;;;;;;;;;5040107;28;20092;-78
2023/06/29 13:41:45;;;;;;;5.43;2.67;;;;;;;;;;5055719;28;20492;-78
2023/06/29 13:44:13;;;;;;;2.90;2.53;;;;;;;;;;5038811;28;20039;-79
2023/06/29 13:46:39;;;;;;;4.55;2.67;;;;;;;;;;5072190;28;20032;-79
2023/06/29 13:49:04;;;;;;;2.80;2.50;;;;;;;;;;5039073;28;20032;-80
2023/06/29 13:51:31;;;;;;;3.05;2.30;;;;;;;;;;5039219;28;20035;-79
2023/06/29 13:53:57;;;;;;;4.93;2.33;;;;;;;;;;5074298;28;20048;-79
2023/06/29 13:56:23;;;;;;;2.65;2.25;;;;;;;;;;5056718;28;20457;-82
2023/06/29 13:58:49;;;;;;;2.25;2.08;;;;;;;;;;5038813;28;20032;-81
2023/06/29 14:01:15;;;;;;;5.35;2.38;;;;;;;;;;5039042;28;20029;-80
2023/06/29 14:03:40;;;;;;;3.67;2.30;;;;;;;;;;5039219;28;20032;-81
2023/06/29 14:06:06;;;;;;;4.07;2.38;;;;;;;;;;5055716;28;20052;-80
2023/06/29 14:08:31;;;;;;;3.03;2.45;;;;;;;;;;5073158;28;20116;-82
2023/06/29 14:10:56;;;;;;;3.58;2.92;;;;;;;;;;5055508;28;20025;-80
2023/06/29 14:13:22;;;;;;;5.93;2.28;;;;;;;;;;5073831;28;20085;-81
2023/06/29 14:15:47;;;;;;;3.22;2.50;;;;;;;;;;5039160;28;20024;-81
2023/06/29 14:18:13;;;;;;;2.58;2.38;;;;;;;;;;5055197;28;20021;-80
2023/06/29 14:20:38;;;;;;;2.97;2.42;;;;;;;;;;5055387;28;20479;-79
2023/06/29 14:23:05;;;;;;;4.88;2.60;;;;;;;;;;5055985;28;20462;-80
2023/06/29 14:25:30;;;;;;;4.25;2.40;;;;;;;;;;5077023;28;20033;-80
2023/06/29 14:27:55;;;;;;;3.30;2.40;;;;;;;;;;5058513;28;20353;-81